createdAt,value
2023-03-01T00:01:55.683Z,-3.69
2023-03-01T00:04:36.255Z,-3.35
2023-03-01T00:07:05.074Z,-3.39
2023-03-01T00:09:32.508Z,-3.28
2023-03-01T00:12:27.105Z,-3.24
2023-03-01T00:14:54.554Z,-3.19
2023-03-01T00:17:22.096Z,-3.44
2023-03-01T00:19:49.516Z,-4.20
2023-03-01T00:22:18.344Z,-4.19
2023-03-01T00:27:34.558Z,-3.57
2023-03-01T00:30:02.029Z,-3.38
2023-03-01T00:32:30.350Z,-3.22
2023-03-01T00:34:57.838Z,-3.39
2023-03-01T00:37:26.626Z,-3.17
2023-03-01T00:39:54.068Z,-3.15
2023-03-01T00:42:23.049Z,-3.05
2023-03-01T00:47:53.370Z,-3.14
2023-03-01T00:50:21.385Z,-3.36
2023-03-01T00:52:54.381Z,-3.57
2023-03-01T00:55:22.923Z,-3.54
2023-03-01T00:57:50.447Z,-3.71
2023-03-01T01:00:18.702Z,-3.71
2023-03-01T01:02:46.327Z,-3.52
2023-03-01T01:05:14.064Z,-3.42
2023-03-01T01:07:41.694Z,-3.46
2023-03-01T01:10:17.913Z,-3.74
2023-03-01T01:12:46.492Z,-4.07
2023-03-01T01:15:17.349Z,-3.98
2023-03-01T01:17:45.415Z,-4.35
2023-03-01T01:20:13.705Z,-4.20
2023-03-01T01:22:41.155Z,-4.09
2023-03-01T01:25:11.462Z,-4.15
2023-03-01T01:27:38.937Z,-4.44
2023-03-01T01:30:07.545Z,-4.54
2023-03-01T01:32:34.966Z,-4.52
2023-03-01T01:35:02.603Z,-4.28
2023-03-01T01:40:30.560Z,-4.05
2023-03-01T01:45:57.433Z,-3.94
2023-03-01T01:48:37.283Z,-3.74
2023-03-01T01:51:05.238Z,-3.71
2023-03-01T01:53:32.886Z,-3.79
2023-03-01T01:56:03.420Z,-3.82
2023-03-01T01:58:32.072Z,-4.34
2023-03-01T02:01:01.821Z,-4.23
2023-03-01T02:03:34.278Z,-3.96
2023-03-01T02:06:06.240Z,-4.01
2023-03-01T02:08:36.479Z,-4.05
2023-03-01T02:11:05.503Z,-4.04
2023-03-01T02:13:33.503Z,-4.07
2023-03-01T02:16:04.219Z,-4.27
2023-03-01T02:18:31.983Z,-4.81
2023-03-01T02:21:10.548Z,-4.54
2023-03-01T02:26:42.523Z,-4.22
2023-03-01T02:29:11.400Z,-4.09
2023-03-01T02:31:44.836Z,-4.08
2023-03-01T02:37:21.383Z,-3.94
2023-03-01T02:39:50.708Z,-3.99
2023-03-01T02:42:25.062Z,-3.98
2023-03-01T02:44:55.680Z,-4.04
2023-03-01T02:47:23.199Z,-4.12
2023-03-01T02:49:50.665Z,-3.99
2023-03-01T02:52:29.194Z,-4.12
2023-03-01T02:55:00.838Z,-3.98
2023-03-01T02:57:29.851Z,-4.06
2023-03-01T02:59:59.694Z,-4.01
2023-03-01T03:02:37.641Z,-3.99
2023-03-01T03:08:24.846Z,-4.19
2023-03-01T03:10:53.793Z,-4.39
2023-03-01T03:13:22.949Z,-4.30
2023-03-01T03:15:52.468Z,-4.20
2023-03-01T03:18:20.116Z,-4.22
2023-03-01T03:20:47.728Z,-4.36
2023-03-01T03:23:15.375Z,-4.35
2023-03-01T03:25:42.787Z,-4.99
2023-03-01T03:28:11.360Z,-4.69
2023-03-01T03:30:41.126Z,-4.41
2023-03-01T03:33:13.313Z,-4.34
2023-03-01T03:35:42.703Z,-4.42
2023-03-01T03:38:16.471Z,-4.73
2023-03-01T03:43:43.560Z,-4.82
2023-03-01T03:46:12.029Z,-4.52
2023-03-01T03:48:43.308Z,-4.44
2023-03-01T03:51:12.693Z,-4.79
2023-03-01T03:53:40.295Z,-4.81
2023-03-01T03:56:08.607Z,-4.84
2023-03-01T03:58:36.190Z,-4.65
2023-03-01T04:01:04.156Z,-4.66
2023-03-01T04:03:34.150Z,-4.63
2023-03-01T04:09:03.838Z,-5.26
2023-03-01T04:11:31.289Z,-5.36
2023-03-01T04:14:00.891Z,-4.89
2023-03-01T04:16:28.579Z,-4.66
2023-03-01T04:18:56.272Z,-4.64
2023-03-01T04:21:24.163Z,-4.63
2023-03-01T04:23:53.361Z,-4.45
2023-03-01T04:26:22.423Z,-4.41
2023-03-01T04:28:51.366Z,-4.56
2023-03-01T04:31:22.106Z,-4.49
2023-03-01T04:33:52.418Z,-4.47
2023-03-01T04:39:13.120Z,-4.47
2023-03-01T04:41:43.831Z,-4.31
2023-03-01T04:44:11.362Z,-4.28
2023-03-01T04:46:38.832Z,-4.35
2023-03-01T04:49:06.668Z,-4.40
2023-03-01T04:51:34.375Z,-4.49
2023-03-01T04:54:02.160Z,-4.40
2023-03-01T04:56:30.023Z,-4.49
2023-03-01T04:58:59.019Z,-4.45
2023-03-01T05:01:26.519Z,-4.41
2023-03-01T05:03:54.400Z,-4.44
2023-03-01T05:06:22.928Z,-4.60
2023-03-01T05:08:50.402Z,-4.76
2023-03-01T05:11:17.838Z,-4.75
2023-03-01T05:13:45.309Z,-4.66
2023-03-01T05:16:14.959Z,-4.78
2023-03-01T05:18:42.661Z,-4.71
2023-03-01T05:21:11.701Z,-4.68
2023-03-01T05:26:29.638Z,-4.55
2023-03-01T05:31:59.753Z,-4.63
2023-03-01T05:34:28.649Z,-5.20
2023-03-01T05:36:56.422Z,-5.16
2023-03-01T05:42:26.620Z,-5.01
2023-03-01T05:44:54.094Z,-4.92
2023-03-01T05:47:22.871Z,-4.80
2023-03-01T05:49:51.214Z,-4.82
2023-03-01T05:52:18.639Z,-4.75
2023-03-01T05:54:47.024Z,-4.74
2023-03-01T05:57:14.526Z,-4.85
2023-03-01T05:59:41.934Z,-4.92
2023-03-01T06:02:09.363Z,-5.01
2023-03-01T06:04:38.212Z,-5.32
2023-03-01T06:07:05.708Z,-5.25
2023-03-01T06:09:33.266Z,-5.16
2023-03-01T06:12:00.787Z,-5.03
2023-03-01T06:14:28.231Z,-5.04
2023-03-01T06:19:55.930Z,-4.80
2023-03-01T06:22:23.388Z,-4.73
2023-03-01T06:24:50.917Z,-4.72
2023-03-01T06:27:18.358Z,-4.65
2023-03-01T06:29:45.804Z,-4.65
2023-03-01T06:32:13.283Z,-4.78
2023-03-01T06:34:40.766Z,-4.66
2023-03-01T06:37:09.744Z,-4.56
2023-03-01T06:39:37.423Z,-4.33
2023-03-01T06:42:30.009Z,-3.85
2023-03-01T06:44:57.532Z,-2.95
2023-03-01T06:50:13.706Z,-1.42
2023-03-01T06:52:42.573Z,-0.76
2023-03-01T06:55:10.506Z,-0.51
2023-03-01T06:57:38.013Z,0.18
2023-03-01T07:00:06.900Z,0.84
2023-03-01T07:05:22.765Z,1.33
2023-03-01T07:07:51.534Z,1.74
2023-03-01T07:10:19.243Z,1.82
2023-03-01T07:12:47.316Z,2.46
2023-03-01T07:15:15.866Z,3.30
2023-03-01T07:17:45.326Z,3.87
2023-03-01T07:20:13.762Z,4.23
2023-03-01T07:22:42.181Z,4.66
2023-03-01T07:25:11.637Z,5.11
2023-03-01T07:27:39.088Z,5.42
2023-03-01T07:30:08.029Z,5.76
2023-03-01T07:32:36.402Z,5.28
2023-03-01T07:35:03.977Z,5.66
2023-03-01T07:37:31.454Z,6.31
2023-03-01T07:43:11.847Z,6.72
2023-03-01T07:45:39.313Z,7.04
2023-03-01T07:48:06.962Z,7.45
2023-03-01T07:50:34.605Z,7.86
2023-03-01T07:53:02.047Z,8.13
2023-03-01T07:58:33.334Z,7.67
2023-03-01T08:01:03.222Z,7.77
2023-03-01T08:03:30.794Z,8.15
2023-03-01T08:06:00.143Z,8.09
2023-03-01T08:08:27.687Z,7.71
2023-03-01T08:13:51.898Z,7.04
2023-03-01T08:16:21.751Z,6.59
2023-03-01T08:18:51.941Z,6.13
2023-03-01T08:21:19.822Z,5.77
2023-03-01T08:23:47.607Z,5.41
2023-03-01T08:26:16.796Z,5.04
2023-03-01T08:31:36.274Z,4.21
2023-03-01T08:34:06.100Z,4.39
2023-03-01T08:39:32.803Z,4.47
2023-03-01T08:42:00.231Z,4.62
2023-03-01T08:44:27.963Z,4.64
2023-03-01T08:46:56.792Z,4.67
2023-03-01T08:52:23.315Z,4.77
2023-03-01T08:54:50.879Z,5.00
2023-03-01T08:57:18.308Z,5.08
2023-03-01T08:59:45.905Z,5.19
2023-03-01T09:02:16.811Z,4.72
2023-03-01T09:04:45.092Z,4.97
2023-03-01T09:07:12.876Z,5.06
2023-03-01T09:09:40.344Z,5.33
2023-03-01T09:12:08.093Z,5.60
2023-03-01T09:17:32.419Z,5.44
2023-03-01T09:22:57.551Z,5.18
2023-03-01T09:25:25.143Z,5.28
2023-03-01T09:27:52.937Z,4.98
2023-03-01T09:30:20.634Z,4.80
2023-03-01T09:33:12.240Z,4.74
2023-03-01T09:35:46.794Z,5.14
2023-03-01T09:38:14.737Z,5.48
2023-03-01T09:40:46.455Z,5.55
2023-03-01T09:46:27.559Z,5.50
2023-03-01T09:48:58.225Z,5.63
2023-03-01T09:51:29.639Z,5.53
2023-03-01T09:57:07.476Z,5.41
2023-03-01T09:59:42.686Z,5.70
2023-03-01T10:02:23.307Z,5.44
2023-03-01T10:08:08.466Z,5.21
2023-03-01T10:10:39.189Z,5.69
2023-03-01T10:13:15.187Z,6.05
2023-03-01T10:15:45.408Z,5.56
2023-03-01T10:18:14.925Z,5.71
2023-03-01T10:20:46.684Z,6.12
2023-03-01T10:26:17.641Z,5.80
2023-03-01T10:28:51.779Z,5.42
2023-03-01T10:31:23.139Z,5.41
2023-03-01T10:34:04.321Z,5.36
2023-03-01T10:36:34.729Z,4.53
2023-03-01T10:42:07.466Z,5.00
2023-03-01T10:44:41.895Z,5.22
2023-03-01T10:47:15.932Z,5.19
2023-03-01T10:50:00.852Z,5.13
2023-03-01T10:52:32.268Z,5.53
2023-03-01T10:55:01.675Z,5.53
2023-03-01T10:57:41.277Z,5.62
2023-03-01T11:00:13.610Z,5.69
2023-03-01T11:02:41.355Z,5.92
2023-03-01T11:05:20.348Z,6.10
2023-03-01T11:07:52.136Z,6.02
2023-03-01T11:10:21.828Z,5.95
2023-03-01T11:12:51.039Z,5.69
2023-03-01T11:15:27.646Z,5.53
2023-03-01T11:18:05.725Z,5.59
2023-03-01T11:20:38.023Z,5.70
2023-03-01T11:23:08.436Z,6.10
2023-03-01T11:25:38.879Z,6.45
2023-03-01T11:28:10.138Z,6.21
2023-03-01T11:30:41.152Z,6.39
2023-03-01T11:33:17.891Z,6.80
2023-03-01T11:35:50.219Z,6.30
2023-03-01T11:38:22.201Z,6.29
2023-03-01T11:40:56.014Z,6.54
2023-03-01T11:43:30.213Z,6.45
2023-03-01T11:46:15.822Z,6.30
2023-03-01T11:48:53.710Z,6.54
2023-03-01T11:51:26.832Z,6.44
2023-03-01T11:54:16.478Z,6.37
2023-03-01T11:56:47.834Z,6.56
2023-03-01T11:59:38.430Z,6.25
2023-03-01T12:02:35.169Z,6.65
2023-03-01T12:05:28.291Z,6.59
2023-03-01T12:07:58.868Z,6.85
2023-03-01T12:10:29.172Z,6.60
2023-03-01T12:13:07.993Z,6.86
2023-03-01T12:15:42.582Z,6.43
2023-03-01T12:21:21.623Z,6.84
2023-03-01T12:24:24.513Z,6.79
2023-03-01T12:26:59.977Z,6.46
2023-03-01T12:29:28.378Z,6.77
2023-03-01T12:31:57.616Z,6.75
2023-03-01T12:34:45.590Z,6.90
2023-03-01T12:40:18.304Z,6.89
2023-03-01T12:42:52.832Z,6.97
2023-03-01T12:45:34.672Z,7.29
2023-03-01T12:48:14.973Z,7.53
2023-03-01T12:50:47.700Z,7.68
2023-03-01T12:53:25.398Z,7.56
2023-03-01T12:55:54.794Z,7.72
2023-03-01T12:58:29.946Z,7.56
2023-03-01T13:01:17.134Z,7.71
2023-03-01T13:04:00.789Z,7.60
2023-03-01T13:06:43.890Z,8.03
2023-03-01T13:09:20.483Z,7.66
2023-03-01T13:11:48.000Z,7.61
2023-03-01T13:14:38.034Z,7.78
2023-03-01T13:17:05.515Z,7.95
2023-03-01T13:19:36.061Z,8.45
2023-03-01T13:22:28.968Z,8.67
2023-03-01T13:27:39.023Z,8.15
2023-03-01T13:33:37.339Z,8.11
2023-03-01T13:36:07.964Z,7.80
2023-03-01T13:38:47.676Z,8.06
2023-03-01T13:41:15.961Z,8.69
2023-03-01T13:43:44.839Z,8.25
2023-03-01T13:46:17.569Z,7.72
2023-03-01T13:51:48.691Z,8.13
2023-03-01T13:54:19.971Z,7.84
2023-03-01T13:56:47.479Z,7.72
2023-03-01T13:59:15.971Z,7.58
2023-03-01T14:01:43.926Z,8.04
2023-03-01T14:04:22.530Z,8.03
2023-03-01T14:06:49.974Z,7.79
2023-03-01T14:09:20.659Z,8.45
2023-03-01T14:14:46.629Z,8.57
2023-03-01T14:17:46.055Z,8.38
2023-03-01T14:20:18.623Z,8.95
2023-03-01T15:08:39.239Z,7.99
2023-03-01T15:11:17.869Z,8.28
2023-03-01T15:13:47.327Z,8.23
2023-03-01T15:16:16.086Z,7.73
2023-03-01T15:18:47.302Z,7.58
2023-03-01T15:21:19.732Z,7.42
2023-03-01T15:23:54.357Z,6.99
2023-03-01T15:26:27.666Z,6.97
2023-03-01T15:28:58.936Z,6.84
2023-03-01T15:34:26.078Z,6.47
2023-03-01T15:36:54.843Z,6.26
2023-03-01T15:39:39.299Z,6.53
2023-03-01T15:42:09.206Z,6.41
2023-03-01T15:44:43.653Z,6.23
2023-03-01T15:47:25.894Z,6.20
2023-03-01T15:49:55.831Z,5.91
2023-03-01T15:52:29.729Z,5.76
2023-03-01T15:57:47.761Z,5.91
2023-03-01T16:00:16.017Z,5.90
2023-03-01T16:02:44.553Z,6.02
2023-03-01T16:05:19.886Z,6.16
2023-03-01T16:10:52.306Z,5.86
2023-03-01T16:13:21.199Z,5.85
2023-03-01T16:15:48.948Z,5.99
2023-03-01T16:18:16.446Z,5.97
2023-03-01T16:23:38.694Z,5.80
2023-03-01T16:29:05.644Z,5.80
2023-03-01T16:31:34.250Z,5.68
2023-03-01T16:34:02.054Z,6.03
2023-03-01T16:36:29.948Z,5.73
2023-03-01T16:42:01.842Z,6.11
2023-03-01T16:44:31.249Z,5.74
2023-03-01T16:46:58.671Z,5.50
2023-03-01T16:49:26.158Z,5.34
2023-03-01T16:54:52.141Z,4.82
2023-03-01T16:59:54.923Z,4.84
2023-03-01T17:02:22.353Z,4.63
2023-03-01T17:07:48.371Z,4.27
2023-03-01T17:10:15.840Z,4.10
2023-03-01T17:12:43.282Z,4.11
2023-03-01T17:15:13.049Z,4.06
2023-03-01T17:20:39.122Z,3.16
2023-03-01T17:23:06.836Z,3.13
2023-03-01T17:25:34.260Z,3.22
2023-03-01T17:28:01.703Z,3.51
2023-03-01T17:33:24.077Z,3.54
2023-03-01T17:38:54.098Z,3.34
2023-03-01T17:41:23.591Z,3.44
2023-03-01T17:43:51.102Z,3.40
2023-03-01T17:46:19.056Z,3.21
2023-03-01T17:51:38.431Z,2.96
2023-03-01T17:54:06.438Z,2.97
2023-03-01T17:56:34.051Z,3.06
2023-03-01T17:59:01.580Z,3.04
2023-03-01T18:01:29.271Z,3.00
2023-03-01T18:03:56.870Z,2.87
2023-03-01T18:06:41.936Z,2.73
2023-03-01T18:09:11.740Z,2.44
2023-03-01T18:14:42.070Z,1.93
2023-03-01T18:17:11.872Z,1.90
2023-03-01T18:19:41.065Z,1.72
2023-03-01T18:22:09.363Z,1.64
2023-03-01T18:24:38.611Z,1.49
2023-03-01T18:27:06.644Z,1.56
2023-03-01T18:32:23.934Z,1.36
2023-03-01T18:34:51.601Z,1.18
2023-03-01T18:37:19.048Z,0.93
2023-03-01T18:39:51.770Z,0.76
2023-03-01T18:45:09.225Z,0.34
2023-03-01T18:47:36.673Z,0.64
2023-03-01T18:52:54.064Z,0.38
2023-03-01T18:55:22.837Z,0.37
2023-03-01T18:57:50.342Z,0.66
2023-03-01T19:00:19.243Z,0.74
2023-03-01T19:02:47.380Z,0.72
2023-03-01T19:05:16.470Z,0.66
2023-03-01T19:07:44.734Z,0.70
2023-03-01T19:10:12.817Z,0.64
2023-03-01T19:12:41.609Z,0.36
2023-03-01T19:15:09.502Z,0.41
2023-03-01T19:17:36.969Z,0.18
2023-03-01T19:20:05.041Z,0.24
2023-03-01T19:22:32.497Z,0.22
2023-03-01T19:27:59.408Z,-0.22
2023-03-01T19:30:27.103Z,-0.28
2023-03-01T19:32:54.654Z,-0.42
2023-03-01T19:35:23.318Z,-0.71
2023-03-01T19:40:53.351Z,-0.72
2023-03-01T19:43:22.228Z,-0.75
2023-03-01T19:45:51.916Z,-0.55
2023-03-01T19:48:19.350Z,-0.66
2023-03-01T19:50:46.837Z,-0.54
2023-03-01T19:53:15.000Z,-0.72
2023-03-01T19:58:47.537Z,-0.77
2023-03-01T20:01:16.294Z,-0.48
2023-03-01T20:03:43.836Z,-1.30
2023-03-01T20:06:13.152Z,-0.73
2023-03-01T20:08:40.598Z,-0.69
2023-03-01T20:11:09.634Z,-0.53
2023-03-01T20:16:41.756Z,-0.61
2023-03-01T20:19:09.214Z,-0.84
2023-03-01T20:21:36.841Z,-0.95
2023-03-01T20:24:04.312Z,-1.13
2023-03-01T20:26:33.126Z,-1.14
2023-03-01T20:32:00.500Z,-1.20
2023-03-01T20:34:28.049Z,-1.23
2023-03-01T20:36:56.678Z,-1.20
2023-03-01T20:39:24.136Z,-1.76
2023-03-01T20:41:51.569Z,-1.47
2023-03-01T20:44:19.118Z,-1.15
2023-03-01T20:46:46.619Z,-0.81
2023-03-01T20:49:15.486Z,-1.28
2023-03-01T20:51:44.181Z,-1.03
2023-03-01T20:54:11.818Z,-1.11
2023-03-01T20:59:30.097Z,-1.08
2023-03-01T21:01:57.511Z,-1.19
2023-03-01T21:04:27.990Z,-1.05
2023-03-01T21:06:56.827Z,-1.14
2023-03-01T21:12:15.497Z,-1.62
2023-03-01T21:14:47.116Z,-1.95
2023-03-01T21:17:15.759Z,-2.55
2023-03-01T21:22:34.800Z,-1.95
2023-03-01T21:28:00.058Z,-1.33
2023-03-01T21:30:27.524Z,-1.85
2023-03-01T21:32:55.130Z,-1.71
2023-03-01T21:35:22.651Z,-1.46
2023-03-01T21:37:51.515Z,-1.47
2023-03-01T21:40:19.203Z,-1.52
2023-03-01T21:42:48.647Z,-1.66
2023-03-01T21:45:16.303Z,-1.59
2023-03-01T21:47:43.749Z,-2.14
2023-03-01T21:50:12.361Z,-1.71
2023-03-01T21:55:39.389Z,-1.96
2023-03-01T21:58:06.929Z,-2.04
2023-03-01T22:03:32.022Z,-2.16
2023-03-01T22:06:01.168Z,-1.95
2023-03-01T22:08:29.373Z,-2.43
2023-03-01T22:10:58.326Z,-1.98
2023-03-01T22:13:25.762Z,-1.89
2023-03-01T22:15:53.175Z,-2.02
2023-03-01T22:18:20.616Z,-2.32
2023-03-01T22:20:48.070Z,-2.14
2023-03-01T22:23:15.565Z,-2.18
2023-03-01T22:28:21.433Z,-2.03
2023-03-01T22:33:51.805Z,-1.94
2023-03-01T22:36:19.257Z,-2.07
2023-03-01T22:38:47.047Z,-2.10
2023-03-01T22:41:14.751Z,-1.68
2023-03-01T22:46:32.999Z,-2.22
2023-03-01T22:49:00.657Z,-2.21
2023-03-01T22:51:29.836Z,-1.87
2023-03-01T22:53:57.871Z,-1.71
2023-03-01T22:59:15.132Z,-2.43
2023-03-01T23:01:47.305Z,-2.49
2023-03-01T23:04:15.225Z,-2.33
2023-03-01T23:06:51.577Z,-2.03
2023-03-01T23:09:20.009Z,-1.88
2023-03-01T23:11:47.557Z,-1.82
2023-03-01T23:14:16.071Z,-1.89
2023-03-01T23:16:45.138Z,-1.99
2023-03-01T23:22:11.132Z,-2.06
2023-03-01T23:24:38.792Z,-2.19
2023-03-01T23:27:06.698Z,-2.28
2023-03-01T23:29:34.146Z,-2.09
2023-03-01T23:32:03.277Z,-1.99
2023-03-01T23:34:30.871Z,-2.06
2023-03-01T23:36:58.508Z,-1.95
2023-03-01T23:39:26.087Z,-1.90
2023-03-01T23:41:53.984Z,-1.79
2023-03-01T23:44:22.271Z,-1.85
2023-03-01T23:46:50.863Z,-1.69
2023-03-01T23:49:21.674Z,-1.88
2023-03-01T23:51:49.661Z,-2.09
2023-03-01T23:54:18.896Z,-2.66
2023-03-01T23:56:47.077Z,-3.04
2023-03-01T23:59:16.744Z,-2.96
